sensor_id;sensor_type;location;lat;lon;timestamp;P1;durP1;ratioP1;P2;durP2;ratioP2
26838;SDS011;40088;51.214;6.786;2023-04-01T00:06:17;3.67;;;2.77;;
26838;SDS011;40088;51.214;6.786;2023-04-01T00:16:18;4.47;;;2.97;;
26838;SDS011;40088;51.214;6.786;2023-04-01T00:26:19;5.68;;;4.10;;
26838;SDS011;40088;51.214;6.786;2023-04-01T00:36:21;6.50;;;4.88;;
26838;SDS011;40088;51.214;6.786;2023-04-01T00:46:23;5.00;;;3.50;;
26838;SDS011;40088;51.214;6.786;2023-04-01T00:56:33;4.25;;;3.50;;
26838;SDS011;40088;51.214;6.786;2023-04-01T01:06:46;7.87;;;5.83;;
26838;SDS011;40088;51.214;6.786;2023-04-01T01:17:26;4.55;;;3.85;;
26838;SDS011;40088;51.214;6.786;2023-04-01T01:27:52;3.88;;;2.80;;
26838;SDS011;40088;51.214;6.786;2023-04-01T01:38:17;3.03;;;2.15;;
26838;SDS011;40088;51.214;6.786;2023-04-01T01:48:21;3.90;;;3.25;;
26838;SDS011;40088;51.214;6.786;2023-04-01T02:18:43;2.08;;;1.55;;
26838;SDS011;40088;51.214;6.786;2023-04-01T02:28:48;4.85;;;4.00;;
26838;SDS011;40088;51.214;6.786;2023-04-01T02:38:50;4.68;;;3.67;;
26838;SDS011;40088;51.214;6.786;2023-04-01T02:48:52;2.22;;;1.95;;
26838;SDS011;40088;51.214;6.786;2023-04-01T02:58:54;4.32;;;3.13;;
26838;SDS011;40088;51.214;6.786;2023-04-01T03:08:55;3.55;;;2.72;;
26838;SDS011;40088;51.214;6.786;2023-04-01T03:18:56;3.95;;;2.17;;
26838;SDS011;40088;51.214;6.786;2023-04-01T03:28:58;2.87;;;1.83;;
26838;SDS011;40088;51.214;6.786;2023-04-01T03:38:59;3.00;;;2.08;;
26838;SDS011;40088;51.214;6.786;2023-04-01T03:48:59;2.25;;;1.95;;
26838;SDS011;40088;51.214;6.786;2023-04-01T03:59:03;2.03;;;1.52;;
26838;SDS011;40088;51.214;6.786;2023-04-01T04:09:05;3.13;;;1.92;;
26838;SDS011;40088;51.214;6.786;2023-04-01T04:19:06;2.33;;;1.90;;
26838;SDS011;40088;51.214;6.786;2023-04-01T04:29:06;2.85;;;1.60;;
26838;SDS011;40088;51.214;6.786;2023-04-01T04:39:06;2.70;;;2.08;;
26838;SDS011;40088;51.214;6.786;2023-04-01T04:49:07;3.72;;;2.92;;
26838;SDS011;40088;51.214;6.786;2023-04-01T04:59:07;2.28;;;1.88;;
26838;SDS011;40088;51.214;6.786;2023-04-01T05:09:07;2.97;;;1.95;;
26838;SDS011;40088;51.214;6.786;2023-04-01T05:19:07;2.63;;;1.85;;
26838;SDS011;40088;51.214;6.786;2023-04-01T05:29:08;3.22;;;2.00;;
26838;SDS011;40088;51.214;6.786;2023-04-01T05:39:08;2.50;;;1.75;;
26838;SDS011;40088;51.214;6.786;2023-04-01T05:49:08;2.47;;;1.70;;
26838;SDS011;40088;51.214;6.786;2023-04-01T05:59:09;2.58;;;1.67;;
26838;SDS011;40088;51.214;6.786;2023-04-01T06:09:44;1.95;;;1.60;;
26838;SDS011;40088;51.214;6.786;2023-04-01T06:19:48;2.17;;;1.80;;
26838;SDS011;40088;51.214;6.786;2023-04-01T06:51:24;2.15;;;1.70;;
26838;SDS011;40088;51.214;6.786;2023-04-01T07:11:47;1.85;;;1.67;;
26838;SDS011;40088;51.214;6.786;2023-04-01T07:21:49;4.13;;;2.22;;
26838;SDS011;40088;51.214;6.786;2023-04-01T07:32:02;1.77;;;1.60;;
26838;SDS011;40088;51.214;6.786;2023-04-01T07:53:01;2.63;;;2.13;;
26838;SDS011;40088;51.214;6.786;2023-04-01T08:23:53;1.60;;;1.45;;
26838;SDS011;40088;51.214;6.786;2023-04-01T08:33:57;2.55;;;1.75;;
26838;SDS011;40088;51.214;6.786;2023-04-01T09:05:07;2.33;;;1.80;;
26838;SDS011;40088;51.214;6.786;2023-04-01T09:15:26;1.83;;;1.52;;
26838;SDS011;40088;51.214;6.786;2023-04-01T09:46:25;2.80;;;2.47;;
26838;SDS011;40088;51.214;6.786;2023-04-01T10:07:01;1.77;;;1.67;;
26838;SDS011;40088;51.214;6.786;2023-04-01T10:17:41;1.92;;;1.70;;
26838;SDS011;40088;51.214;6.786;2023-04-01T10:27:49;2.35;;;2.10;;
26838;SDS011;40088;51.214;6.786;2023-04-01T10:38:22;2.83;;;2.28;;
26838;SDS011;40088;51.214;6.786;2023-04-01T11:30:22;1.95;;;1.60;;
26838;SDS011;40088;51.214;6.786;2023-04-01T12:31:58;3.13;;;2.60;;
26838;SDS011;40088;51.214;6.786;2023-04-01T14:04:47;2.72;;;2.20;;
26838;SDS011;40088;51.214;6.786;2023-04-01T14:15:14;2.28;;;2.03;;
26838;SDS011;40088;51.214;6.786;2023-04-01T14:36:33;3.17;;;2.15;;
26838;SDS011;40088;51.214;6.786;2023-04-01T14:47:04;2.65;;;2.45;;
26838;SDS011;40088;51.214;6.786;2023-04-01T14:57:27;3.38;;;2.10;;
26838;SDS011;40088;51.214;6.786;2023-04-01T15:17:58;2.10;;;1.90;;
26838;SDS011;40088;51.214;6.786;2023-04-01T15:28:17;2.67;;;2.00;;
26838;SDS011;40088;51.214;6.786;2023-04-01T15:59:47;2.22;;;2.03;;
26838;SDS011;40088;51.214;6.786;2023-04-01T16:09:55;4.20;;;2.70;;
26838;SDS011;40088;51.214;6.786;2023-04-01T16:20:20;4.07;;;3.05;;
26838;SDS011;40088;51.214;6.786;2023-04-01T16:40:35;2.33;;;2.13;;
26838;SDS011;40088;51.214;6.786;2023-04-01T17:01:12;2.63;;;2.13;;
26838;SDS011;40088;51.214;6.786;2023-04-01T17:11:31;2.95;;;2.60;;
26838;SDS011;40088;51.214;6.786;2023-04-01T17:32:39;2.60;;;2.30;;
26838;SDS011;40088;51.214;6.786;2023-04-01T17:53:20;2.08;;;1.88;;
26838;SDS011;40088;51.214;6.786;2023-04-01T18:23:55;3.08;;;2.50;;
26838;SDS011;40088;51.214;6.786;2023-04-01T18:44:22;2.17;;;1.85;;
26838;SDS011;40088;51.214;6.786;2023-04-01T18:54:42;2.60;;;2.40;;
26838;SDS011;40088;51.214;6.786;2023-04-01T19:04:56;2.75;;;2.30;;
26838;SDS011;40088;51.214;6.786;2023-04-01T19:25:39;2.88;;;2.20;;
26838;SDS011;40088;51.214;6.786;2023-04-01T19:46:33;2.83;;;2.50;;
26838;SDS011;40088;51.214;6.786;2023-04-01T19:56:42;2.60;;;2.30;;
26838;SDS011;40088;51.214;6.786;2023-04-01T20:17:15;3.42;;;2.90;;
26838;SDS011;40088;51.214;6.786;2023-04-01T20:27:21;3.55;;;2.85;;
26838;SDS011;40088;51.214;6.786;2023-04-01T20:37:38;2.60;;;2.38;;
26838;SDS011;40088;51.214;6.786;2023-04-01T20:47:51;3.10;;;2.42;;
26838;SDS011;40088;51.214;6.786;2023-04-01T20:58:31;3.22;;;2.92;;
26838;SDS011;40088;51.214;6.786;2023-04-01T21:08:43;2.75;;;2.47;;
26838;SDS011;40088;51.214;6.786;2023-04-01T21:19:12;2.92;;;2.58;;
26838;SDS011;40088;51.214;6.786;2023-04-01T21:29:50;3.42;;;2.90;;
26838;SDS011;40088;51.214;6.786;2023-04-01T22:22:14;2.33;;;1.98;;
26838;SDS011;40088;51.214;6.786;2023-04-01T22:32:21;2.50;;;1.73;;
26838;SDS011;40088;51.214;6.786;2023-04-01T22:42:34;20.20;;;5.10;;
26838;SDS011;40088;51.214;6.786;2023-04-01T22:52:46;20.70;;;5.70;;
26838;SDS011;40088;51.214;6.786;2023-04-01T23:03:35;10.47;;;4.23;;
26838;SDS011;40088;51.214;6.786;2023-04-01T23:13:22;9.50;;;3.95;;
26838;SDS011;40088;51.214;6.786;2023-04-01T23:23:33;9.25;;;3.72;;
26838;SDS011;40088;51.214;6.786;2023-04-01T23:33:42;11.35;;;3.13;;
26838;SDS011;40088;51.214;6.786;2023-04-01T23:43:43;6.75;;;2.50;;
26838;SDS011;40088;51.214;6.786;2023-04-01T23:53:45;6.03;;;3.72;;
